createdAt,value
2023-02-27T00:00:15.040Z,7.90
2023-02-27T00:02:44.263Z,7.80
2023-02-27T00:05:11.982Z,7.80
2023-02-27T00:07:39.292Z,7.90
2023-02-27T00:10:08.402Z,7.90
2023-02-27T00:12:37.862Z,7.70
2023-02-27T00:15:10.861Z,7.70
2023-02-27T00:17:38.497Z,7.70
2023-02-27T00:20:07.279Z,8.00
2023-02-27T00:22:34.212Z,7.80
2023-02-27T00:25:01.250Z,7.90
2023-02-27T00:27:28.114Z,7.90
2023-02-27T00:29:54.974Z,7.90
2023-02-27T00:32:21.907Z,7.90
2023-02-27T00:34:48.903Z,8.00
2023-02-27T00:37:16.067Z,8.00
2023-02-27T00:39:42.946Z,8.10
2023-02-27T00:42:09.995Z,8.00
2023-02-27T00:44:36.851Z,8.00
2023-02-27T00:47:03.818Z,8.00
2023-02-27T00:49:30.686Z,8.00
2023-02-27T00:51:57.593Z,7.90
2023-02-27T00:54:24.787Z,7.90
2023-02-27T00:56:51.663Z,8.10
2023-02-27T00:59:18.621Z,8.10
2023-02-27T01:01:45.525Z,8.10
2023-02-27T01:04:12.797Z,8.10
2023-02-27T01:06:39.713Z,8.20
2023-02-27T01:09:06.788Z,8.20
2023-02-27T01:11:33.790Z,8.10
2023-02-27T01:14:01.641Z,8.10
2023-02-27T01:16:28.734Z,8.10
2023-02-27T01:18:55.707Z,8.10
2023-02-27T01:21:23.896Z,8.10
2023-02-27T01:23:51.109Z,8.20
2023-02-27T01:26:18.025Z,8.10
2023-02-27T01:28:44.906Z,8.10
2023-02-27T01:31:11.833Z,8.00
2023-02-27T01:33:38.670Z,8.00
2023-02-27T01:36:05.858Z,8.00
2023-02-27T01:38:32.736Z,7.90
2023-02-27T01:41:00.740Z,7.80
2023-02-27T01:43:27.910Z,8.00
2023-02-27T01:45:55.642Z,8.10
2023-02-27T01:48:33.483Z,8.10
2023-02-27T01:51:14.430Z,8.00
2023-02-27T01:53:43.849Z,8.10
2023-02-27T01:56:20.556Z,8.20
2023-02-27T01:58:49.977Z,8.00
2023-02-27T02:01:19.129Z,8.20
2023-02-27T02:04:25.395Z,8.00
2023-02-27T02:06:59.724Z,8.00
2023-02-27T02:09:27.765Z,8.10
2023-02-27T02:11:55.430Z,8.20
2023-02-27T02:14:22.282Z,8.10
2023-02-27T02:17:16.166Z,7.90
2023-02-27T02:19:54.692Z,8.10
2023-02-27T02:22:54.160Z,8.00
2023-02-27T02:25:42.532Z,8.10
2023-02-27T02:28:22.113Z,8.20
2023-02-27T02:30:51.826Z,8.00
2023-02-27T02:33:24.269Z,8.10
2023-02-27T02:36:12.206Z,8.00
2023-02-27T02:38:47.602Z,8.10
2023-02-27T02:41:31.041Z,8.00
2023-02-27T02:44:15.662Z,7.90
2023-02-27T02:46:57.957Z,8.00
2023-02-27T02:49:52.899Z,7.90
2023-02-27T02:52:35.687Z,8.00
2023-02-27T02:55:10.264Z,7.80
2023-02-27T02:57:39.889Z,7.90
2023-02-27T03:00:14.579Z,7.90
2023-02-27T03:02:55.061Z,7.90
2023-02-27T03:05:32.948Z,8.00
2023-02-27T03:08:12.575Z,8.00
2023-02-27T03:10:58.520Z,8.00
2023-02-27T03:13:35.191Z,8.10
2023-02-27T03:16:17.913Z,8.10
2023-02-27T03:19:02.494Z,8.20
2023-02-27T03:21:58.423Z,8.20
2023-02-27T03:24:33.987Z,8.20
2023-02-27T03:27:03.131Z,8.20
2023-02-27T03:29:42.706Z,8.10
2023-02-27T03:32:39.258Z,8.20
2023-02-27T03:35:07.488Z,8.10
2023-02-27T03:37:39.821Z,8.20
2023-02-27T03:40:36.713Z,8.10
2023-02-27T03:43:26.865Z,8.20
2023-02-27T03:46:11.407Z,8.20
2023-02-27T03:48:44.544Z,8.20
2023-02-27T03:51:13.796Z,8.20
2023-02-27T03:53:43.748Z,8.20
2023-02-27T03:56:13.620Z,8.20
2023-02-27T03:58:40.966Z,8.20
2023-02-27T04:01:09.612Z,8.10
2023-02-27T04:03:45.838Z,8.00
2023-02-27T04:06:31.180Z,8.20
2023-02-27T04:09:11.074Z,8.10
2023-02-27T04:11:43.675Z,8.20
2023-02-27T04:14:41.494Z,8.30
2023-02-27T04:17:08.334Z,8.20
2023-02-27T04:20:06.239Z,8.20
2023-02-27T04:22:35.511Z,8.20
2023-02-27T04:25:25.858Z,8.10
2023-02-27T04:28:18.959Z,8.00
2023-02-27T04:31:06.467Z,7.90
2023-02-27T04:33:48.428Z,7.90
2023-02-27T04:36:49.519Z,7.70
2023-02-27T04:39:30.980Z,7.70
2023-02-27T04:42:02.223Z,7.70
2023-02-27T04:44:32.596Z,7.60
2023-02-27T04:47:00.982Z,7.60
2023-02-27T04:49:39.419Z,7.60
2023-02-27T04:52:14.710Z,7.60
2023-02-27T04:55:07.901Z,7.60
2023-02-27T04:57:54.960Z,7.30
2023-02-27T05:00:24.875Z,7.40
2023-02-27T05:03:03.992Z,7.40
2023-02-27T05:05:34.279Z,7.20
2023-02-27T05:08:21.469Z,7.20
2023-02-27T05:11:16.932Z,7.40
2023-02-27T05:13:53.672Z,7.30
2023-02-27T05:16:27.154Z,7.40
2023-02-27T05:18:55.613Z,7.30
2023-02-27T05:21:28.341Z,7.40
2023-02-27T05:24:10.176Z,7.30
2023-02-27T05:26:48.880Z,7.20
2023-02-27T05:29:31.462Z,7.20
2023-02-27T05:32:12.052Z,7.20
2023-02-27T05:34:47.793Z,7.30
2023-02-27T05:37:18.410Z,7.40
2023-02-27T05:39:47.414Z,7.50
2023-02-27T05:42:29.997Z,7.40
2023-02-27T05:45:11.097Z,7.30
2023-02-27T05:47:44.134Z,7.40
2023-02-27T05:50:21.686Z,7.40
2023-02-27T05:52:51.693Z,7.40
2023-02-27T05:55:18.887Z,7.50
2023-02-27T05:57:54.785Z,7.40
2023-02-27T06:00:35.012Z,7.40
2023-02-27T06:03:02.045Z,7.40
2023-02-27T06:05:29.300Z,7.40
2023-02-27T06:07:56.459Z,7.40
2023-02-27T06:10:23.790Z,7.60
2023-02-27T06:12:50.623Z,7.50
2023-02-27T06:15:18.836Z,7.50
2023-02-27T06:17:45.762Z,7.60
2023-02-27T06:20:13.044Z,7.60
2023-02-27T06:22:39.965Z,7.60
2023-02-27T06:25:07.163Z,7.60
2023-02-27T06:27:33.998Z,7.70
2023-02-27T06:30:00.959Z,7.60
2023-02-27T06:32:28.080Z,7.70
2023-02-27T06:34:54.900Z,7.70
2023-02-27T06:37:22.095Z,7.70
2023-02-27T06:39:48.996Z,7.80
2023-02-27T06:42:15.856Z,7.60
2023-02-27T06:44:42.794Z,7.60
2023-02-27T06:47:09.627Z,7.70
2023-02-27T06:49:36.517Z,7.80
2023-02-27T06:52:03.374Z,7.60
2023-02-27T06:54:30.160Z,7.70
2023-02-27T06:56:56.927Z,7.70
2023-02-27T06:59:23.709Z,7.90
2023-02-27T07:01:50.628Z,7.90
2023-02-27T07:04:17.975Z,7.70
2023-02-27T07:07:34.352Z,8.10
2023-02-27T07:09:32.016Z,7.80
2023-02-27T07:11:58.809Z,8.00
2023-02-27T07:14:25.874Z,8.10
2023-02-27T07:16:55.452Z,8.10
2023-02-27T07:19:23.595Z,8.20
2023-02-27T07:21:50.955Z,8.20
2023-02-27T07:24:17.914Z,8.20
2023-02-27T07:26:44.886Z,8.20
2023-02-27T07:29:11.933Z,8.40
2023-02-27T07:31:38.814Z,8.50
2023-02-27T07:34:05.844Z,8.60
2023-02-27T07:36:33.006Z,8.70
2023-02-27T07:38:59.933Z,8.50
2023-02-27T07:41:30.782Z,8.70
2023-02-27T07:43:58.144Z,8.80
2023-02-27T07:46:27.835Z,8.80
2023-02-27T07:48:55.208Z,8.80
2023-02-27T07:51:22.226Z,9.00
2023-02-27T07:53:49.034Z,9.00
2023-02-27T07:56:15.955Z,8.90
2023-02-27T07:58:42.689Z,9.10
2023-02-27T08:01:09.548Z,9.00
2023-02-27T08:03:36.324Z,9.00
2023-02-27T08:06:03.237Z,9.10
2023-02-27T08:08:30.366Z,9.10
2023-02-27T08:10:57.183Z,9.00
2023-02-27T08:13:55.688Z,9.10
2023-02-27T08:16:11.393Z,9.00
2023-02-27T08:18:38.496Z,9.10
2023-02-27T08:21:05.668Z,8.90
2023-02-27T08:23:34.593Z,9.10
2023-02-27T08:26:02.764Z,9.20
2023-02-27T08:28:30.049Z,9.20
2023-02-27T08:30:57.006Z,9.30
2023-02-27T08:33:24.630Z,9.30
2023-02-27T08:35:51.877Z,9.40
2023-02-27T08:38:18.663Z,9.30
2023-02-27T08:40:45.786Z,9.30
2023-02-27T08:43:12.581Z,9.50
2023-02-27T08:45:39.418Z,9.40
2023-02-27T08:48:06.588Z,9.40
2023-02-27T08:50:33.410Z,9.30
2023-02-27T08:53:00.209Z,9.50
2023-02-27T08:55:26.968Z,9.50
2023-02-27T08:57:53.805Z,9.40
2023-02-27T09:00:21.456Z,9.50
2023-02-27T09:02:48.257Z,9.50
2023-02-27T09:05:15.176Z,9.60
2023-02-27T09:07:42.097Z,9.60
2023-02-27T09:10:09.866Z,9.70
2023-02-27T09:12:37.649Z,9.80
2023-02-27T09:15:05.605Z,9.70
2023-02-27T09:17:32.601Z,9.80
2023-02-27T09:20:00.141Z,9.70
2023-02-27T09:22:30.049Z,9.80
2023-02-27T09:24:56.942Z,9.90
2023-02-27T09:27:24.039Z,10.00
2023-02-27T09:29:55.599Z,10.00
2023-02-27T09:32:26.429Z,10.00
2023-02-27T09:34:53.712Z,10.10
2023-02-27T09:37:20.588Z,10.20
2023-02-27T09:39:47.556Z,10.30
2023-02-27T09:42:28.666Z,10.20
2023-02-27T09:45:05.897Z,10.10
2023-02-27T09:47:41.037Z,10.20
2023-02-27T09:50:40.442Z,10.20
2023-02-27T09:53:15.785Z,10.00
2023-02-27T09:55:43.657Z,10.00
2023-02-27T09:58:32.046Z,9.90
2023-02-27T10:01:20.906Z,9.80
2023-02-27T10:03:59.977Z,9.90
2023-02-27T10:06:44.053Z,10.00
2023-02-27T10:09:22.542Z,10.10
2023-02-27T10:12:02.053Z,10.10
2023-02-27T10:14:51.953Z,10.20
2023-02-27T10:17:41.331Z,10.30
2023-02-27T10:20:22.546Z,10.30
2023-02-27T10:22:51.931Z,10.40
2023-02-27T10:25:31.254Z,10.40
2023-02-27T10:28:12.949Z,10.50
2023-02-27T10:30:40.472Z,10.60
2023-02-27T10:33:27.377Z,10.80
2023-02-27T10:35:55.341Z,10.90
2023-02-27T10:38:41.540Z,10.90
2023-02-27T10:41:12.944Z,10.90
2023-02-27T10:43:41.402Z,10.90
2023-02-27T10:46:29.667Z,10.90
2023-02-27T10:49:01.886Z,10.80
2023-02-27T10:51:31.431Z,10.90
2023-02-27T10:54:19.208Z,10.90
2023-02-27T10:56:50.601Z,11.10
2023-02-27T10:59:41.675Z,11.10
2023-02-27T11:02:17.847Z,10.90
2023-02-27T11:04:53.930Z,11.00
2023-02-27T11:07:39.607Z,11.10
2023-02-27T11:10:12.339Z,11.10
2023-02-27T11:12:41.495Z,11.20
2023-02-27T11:15:17.506Z,11.30
2023-02-27T11:17:44.471Z,11.40
2023-02-27T11:20:30.865Z,11.30
2023-02-27T11:23:16.069Z,11.40
2023-02-27T11:25:43.448Z,11.40
2023-02-27T11:28:30.872Z,11.30
2023-02-27T11:31:04.530Z,11.30
2023-02-27T11:33:47.671Z,11.30
2023-02-27T11:36:17.474Z,11.10
2023-02-27T11:38:54.607Z,11.30
2023-02-27T11:41:30.600Z,11.30
2023-02-27T11:43:59.728Z,11.30
2023-02-27T11:46:47.279Z,11.50
2023-02-27T11:49:14.613Z,11.70
2023-02-27T11:52:19.879Z,11.70
2023-02-27T11:54:56.158Z,11.90
2023-02-27T11:57:32.513Z,12.00
2023-02-27T12:00:16.145Z,11.90
2023-02-27T12:02:58.268Z,12.20
2023-02-27T12:05:53.722Z,12.40
2023-02-27T12:08:32.430Z,12.40
2023-02-27T12:11:13.559Z,12.40
2023-02-27T12:13:45.624Z,12.60
2023-02-27T12:16:42.458Z,12.50
2023-02-27T12:19:34.978Z,12.60
2023-02-27T12:22:17.326Z,12.80
2023-02-27T12:25:00.214Z,12.90
2023-02-27T12:27:43.721Z,13.00
2023-02-27T12:30:13.808Z,13.10
2023-02-27T12:32:44.419Z,13.10
2023-02-27T12:35:16.599Z,13.40
2023-02-27T12:37:43.550Z,13.50
2023-02-27T12:40:18.220Z,13.40
2023-02-27T12:43:13.945Z,13.20
2023-02-27T12:45:43.852Z,13.00
2023-02-27T12:48:32.056Z,12.90
2023-02-27T12:51:07.414Z,12.70
2023-02-27T12:54:03.590Z,12.60
2023-02-27T12:56:45.181Z,12.70
2023-02-27T12:59:49.445Z,12.60
2023-02-27T13:02:34.109Z,12.50
2023-02-27T13:05:27.867Z,12.30
2023-02-27T13:08:14.420Z,12.10
2023-02-27T13:10:51.566Z,11.90
2023-02-27T13:13:21.380Z,11.70
2023-02-27T13:16:17.665Z,11.60
2023-02-27T13:18:59.322Z,11.50
2023-02-27T13:21:42.812Z,11.40
2023-02-27T13:24:26.694Z,11.40
2023-02-27T13:27:03.184Z,11.40
2023-02-27T13:29:41.009Z,11.40
2023-02-27T13:32:41.285Z,11.40
2023-02-27T13:35:40.831Z,11.40
2023-02-27T13:38:50.397Z,11.40
2023-02-27T13:41:23.473Z,11.40
2023-02-27T13:43:53.244Z,11.30
2023-02-27T13:46:28.774Z,11.20
2023-02-27T13:49:27.110Z,11.20
2023-02-27T13:51:58.714Z,11.10
2023-02-27T13:54:40.441Z,11.10
2023-02-27T13:57:30.534Z,11.00
2023-02-27T14:00:05.237Z,10.90
2023-02-27T14:02:44.135Z,10.90
2023-02-27T14:05:38.084Z,10.70
2023-02-27T14:08:24.610Z,10.60
2023-02-27T14:11:17.684Z,10.60
2023-02-27T14:13:50.640Z,10.60
2023-02-27T14:16:40.156Z,10.40
2023-02-27T14:19:15.882Z,10.30
2023-02-27T14:21:54.582Z,10.30
2023-02-27T14:24:49.595Z,10.30
2023-02-27T14:27:25.263Z,10.10
2023-02-27T14:29:55.320Z,10.20
2023-02-27T14:32:32.382Z,10.20
2023-02-27T14:34:59.932Z,10.00
2023-02-27T14:37:27.706Z,10.10
2023-02-27T14:39:57.010Z,10.00
2023-02-27T14:42:29.415Z,10.00
2023-02-27T14:44:56.453Z,10.00
2023-02-27T14:47:34.913Z,9.90
2023-02-27T14:50:05.682Z,9.90
2023-02-27T14:52:43.913Z,9.80
2023-02-27T14:55:16.838Z,9.90
2023-02-27T14:58:35.891Z,9.90
2023-02-27T15:01:07.583Z,9.90
2023-02-27T15:03:48.241Z,10.00
2023-02-27T15:06:21.709Z,9.90
2023-02-27T15:08:52.241Z,10.00
2023-02-27T15:11:22.171Z,10.00
2023-02-27T15:13:56.368Z,10.00
2023-02-27T15:16:39.222Z,9.90
2023-02-27T15:19:14.973Z,9.80
2023-02-27T15:21:45.659Z,9.70
2023-02-27T15:24:47.784Z,9.70
2023-02-27T15:27:19.889Z,9.50
2023-02-27T15:29:55.728Z,9.50
2023-02-27T15:32:33.566Z,9.40
2023-02-27T15:35:03.656Z,9.50
2023-02-27T15:37:34.283Z,9.50
2023-02-27T15:40:02.209Z,9.40
2023-02-27T15:42:37.669Z,9.40
2023-02-27T15:45:06.450Z,9.50
2023-02-27T15:47:35.134Z,9.40
2023-02-27T15:50:07.726Z,9.50
2023-02-27T15:52:50.381Z,9.40
2023-02-27T15:55:27.472Z,9.40
2023-02-27T15:58:02.713Z,9.60
2023-02-27T16:00:34.140Z,9.40
2023-02-27T16:03:01.501Z,9.40
2023-02-27T16:05:35.901Z,9.40
2023-02-27T16:08:05.279Z,9.40
2023-02-27T16:10:40.233Z,9.40
2023-02-27T16:13:25.529Z,9.40
2023-02-27T16:16:05.904Z,9.30
2023-02-27T16:18:48.085Z,9.30
2023-02-27T16:21:17.530Z,9.30
2023-02-27T16:23:45.262Z,9.30
2023-02-27T16:26:32.069Z,9.30
2023-02-27T16:29:07.131Z,9.30
2023-02-27T16:31:36.584Z,9.30
2023-02-27T16:34:14.193Z,9.30
2023-02-27T16:36:43.192Z,9.30
2023-02-27T16:39:13.450Z,9.30
2023-02-27T16:41:40.410Z,9.30
2023-02-27T16:44:07.188Z,9.30
2023-02-27T16:46:33.987Z,9.30
2023-02-27T16:49:17.868Z,9.30
2023-02-27T16:51:46.624Z,9.30
2023-02-27T16:54:14.056Z,9.40
2023-02-27T16:56:41.435Z,9.20
2023-02-27T16:59:31.548Z,9.30
2023-02-27T17:01:59.783Z,9.10
2023-02-27T17:04:28.030Z,9.10
2023-02-27T17:06:56.871Z,9.20
2023-02-27T17:09:26.908Z,9.20
2023-02-27T17:11:54.857Z,9.10
2023-02-27T17:14:22.361Z,9.10
2023-02-27T17:16:49.607Z,9.10
2023-02-27T17:19:16.725Z,9.00
2023-02-27T17:21:43.675Z,8.90
2023-02-27T17:24:11.028Z,8.90
2023-02-27T17:26:37.839Z,8.90
2023-02-27T17:29:05.319Z,8.80
2023-02-27T17:31:32.630Z,8.80
2023-02-27T17:33:59.612Z,8.90
2023-02-27T17:36:26.877Z,8.90
2023-02-27T17:38:56.093Z,8.70
2023-02-27T17:41:23.152Z,8.90
2023-02-27T17:43:51.806Z,8.90
2023-02-27T17:46:18.710Z,8.90
2023-02-27T17:48:45.624Z,8.80
2023-02-27T17:51:14.412Z,8.80
2023-02-27T17:53:42.001Z,8.80
2023-02-27T17:56:11.186Z,8.70
2023-02-27T17:58:38.609Z,8.80
2023-02-27T18:01:11.599Z,8.90
2023-02-27T18:03:39.088Z,8.90
2023-02-27T18:06:06.640Z,8.70
2023-02-27T18:08:34.281Z,8.80
2023-02-27T18:11:01.398Z,8.80
2023-02-27T18:13:28.792Z,8.70
2023-02-27T18:15:56.896Z,8.70
2023-02-27T18:18:24.545Z,8.80
2023-02-27T18:21:21.542Z,8.80
2023-02-27T18:23:49.438Z,8.60
2023-02-27T18:26:30.554Z,8.70
2023-02-27T18:29:04.740Z,8.60
2023-02-27T18:31:35.114Z,8.60
2023-02-27T18:34:02.554Z,8.70
2023-02-27T18:36:30.376Z,8.60
2023-02-27T18:38:58.443Z,8.60
2023-02-27T18:41:25.606Z,8.50
2023-02-27T18:43:52.540Z,8.60
2023-02-27T18:46:19.720Z,8.60
2023-02-27T18:48:47.133Z,8.70
2023-02-27T18:51:15.607Z,8.60
2023-02-27T18:53:48.871Z,8.60
2023-02-27T18:56:20.067Z,8.50
2023-02-27T18:58:47.133Z,8.70
2023-02-27T19:01:26.663Z,8.50
2023-02-27T19:04:00.196Z,8.50
2023-02-27T19:06:27.999Z,8.50
2023-02-27T19:08:55.049Z,8.50
2023-02-27T19:11:29.533Z,8.40
2023-02-27T19:13:57.422Z,8.40
2023-02-27T19:16:24.350Z,8.20
2023-02-27T19:18:51.162Z,8.40
2023-02-27T19:21:18.015Z,8.40
2023-02-27T19:23:45.393Z,8.30
2023-02-27T19:26:12.284Z,8.50
2023-02-27T19:28:39.165Z,8.30
2023-02-27T19:31:08.681Z,8.40
2023-02-27T19:33:35.900Z,8.30
2023-02-27T19:36:08.179Z,8.50
2023-02-27T19:38:35.573Z,8.50
2023-02-27T19:41:03.632Z,8.50
2023-02-27T19:43:30.445Z,8.40
2023-02-27T19:45:58.169Z,8.40
2023-02-27T19:48:24.954Z,8.30
2023-02-27T19:50:51.729Z,8.50
2023-02-27T19:53:18.538Z,8.30
2023-02-27T19:55:45.280Z,8.40
2023-02-27T19:58:12.078Z,8.30
2023-02-27T20:00:40.130Z,8.30
2023-02-27T20:03:07.087Z,8.30
2023-02-27T20:05:38.194Z,8.30
2023-02-27T20:08:05.496Z,8.30
2023-02-27T20:10:32.820Z,8.40
2023-02-27T20:13:00.097Z,8.40
2023-02-27T20:15:26.942Z,8.30
2023-02-27T20:17:53.749Z,8.30
2023-02-27T20:20:20.723Z,8.30
2023-02-27T20:22:47.573Z,8.30
2023-02-27T20:25:14.356Z,8.30
2023-02-27T20:27:41.457Z,8.30
2023-02-27T20:30:09.080Z,8.30
2023-02-27T20:32:36.102Z,8.20
2023-02-27T20:35:03.180Z,8.40
2023-02-27T20:37:31.982Z,8.50
2023-02-27T20:39:58.829Z,8.40
2023-02-27T20:42:25.661Z,8.40
2023-02-27T20:44:53.361Z,8.30
2023-02-27T20:47:21.591Z,8.40
2023-02-27T20:49:48.693Z,8.40
2023-02-27T20:52:15.608Z,8.50
2023-02-27T20:54:42.448Z,8.40
2023-02-27T20:57:09.289Z,8.20
2023-02-27T20:59:36.178Z,8.30
2023-02-27T21:02:06.879Z,8.40
2023-02-27T21:04:47.781Z,8.40
2023-02-27T21:07:21.413Z,8.40
2023-02-27T21:09:48.500Z,8.10
2023-02-27T21:12:16.038Z,8.10
2023-02-27T21:14:44.529Z,8.30
2023-02-27T21:17:11.753Z,8.20
2023-02-27T21:19:39.966Z,8.20
2023-02-27T21:22:11.020Z,8.10
2023-02-27T21:24:38.162Z,8.10
2023-02-27T21:27:05.594Z,8.20
2023-02-27T21:29:32.445Z,8.20
2023-02-27T21:31:59.656Z,8.20
2023-02-27T21:34:27.957Z,8.20
2023-02-27T21:36:55.333Z,8.20
2023-02-27T21:39:28.236Z,8.30
2023-02-27T21:41:55.294Z,8.30
2023-02-27T21:44:26.690Z,8.30
2023-02-27T21:46:54.393Z,8.30
2023-02-27T21:49:24.019Z,8.40
2023-02-27T21:51:51.142Z,8.20
2023-02-27T21:54:18.999Z,8.30
2023-02-27T21:56:47.746Z,8.30
2023-02-27T21:59:15.277Z,8.20
2023-02-27T22:01:47.191Z,8.20
2023-02-27T22:04:16.270Z,8.30
2023-02-27T22:06:43.383Z,8.30
2023-02-27T22:09:10.298Z,8.20
2023-02-27T22:11:37.485Z,8.30
2023-02-27T22:14:06.884Z,8.20
2023-02-27T22:16:34.521Z,8.30
2023-02-27T22:19:13.804Z,8.10
2023-02-27T22:21:41.014Z,8.10
2023-02-27T22:24:08.290Z,8.10
2023-02-27T22:26:35.938Z,8.20
2023-02-27T22:29:03.446Z,8.00
2023-02-27T22:31:33.340Z,8.10
2023-02-27T22:34:14.011Z,8.30
2023-02-27T22:36:41.813Z,8.10
2023-02-27T22:39:08.707Z,8.10
2023-02-27T22:41:38.076Z,8.20
2023-02-27T22:44:05.889Z,8.30
2023-02-27T22:46:38.630Z,8.30
2023-02-27T22:49:12.425Z,8.10
2023-02-27T22:51:39.393Z,8.50
2023-02-27T22:54:06.914Z,8.40
2023-02-27T22:56:34.530Z,8.50
2023-02-27T22:59:02.566Z,8.40
2023-02-27T23:01:32.153Z,8.30
2023-02-27T23:04:03.131Z,8.30
2023-02-27T23:06:32.575Z,8.20
2023-02-27T23:09:00.299Z,8.20
2023-02-27T23:11:27.880Z,8.20
2023-02-27T23:13:57.478Z,8.20
2023-02-27T23:16:25.057Z,8.10
2023-02-27T23:18:56.899Z,8.10
2023-02-27T23:21:34.278Z,8.20
2023-02-27T23:24:05.895Z,8.10
2023-02-27T23:26:35.564Z,8.00
2023-02-27T23:29:02.322Z,7.90
2023-02-27T23:31:29.392Z,8.10
2023-02-27T23:33:56.695Z,8.00
2023-02-27T23:36:23.492Z,8.00
2023-02-27T23:38:50.334Z,8.00
2023-02-27T23:41:17.669Z,8.00
2023-02-27T23:43:45.355Z,7.90
2023-02-27T23:46:14.405Z,8.10
2023-02-27T23:48:41.569Z,8.10
2023-02-27T23:51:10.053Z,8.00
2023-02-27T23:53:39.243Z,8.00
2023-02-27T23:56:19.507Z,7.90
2023-02-27T23:58:46.536Z,7.90
